Time;durP1;ratioP1;P1;durP2;ratioP2;P2;SDS_P1;SDS_P2;PMS_P1;PMS_P2;Temp;Humidity;BMP_temperature;BMP_pressure;BME280_temperature;BME280_humidity;BME280_pressure;Samples;Min_cycle;Max_cycle;Signal;HPM_P1;HPM_P2
2022/12/22 03:27:26;;;;;;;0.00;0.00;;;;;;;7.81;68.58;99417.56;7361285;19;20054;-60
2022/12/22 03:29:51;;;;;;;0.10;0.10;;;;;;;7.82;68.27;99424.47;7365345;19;20759;-59
2022/12/22 03:32:17;;;;;;;0.00;0.00;;;;;;;7.84;68.62;99422.66;7358099;19;20006;-60
2022/12/22 03:34:42;;;;;;;0.00;0.00;;;;;;;7.86;68.40;99430.44;7364719;19;20015;-60
2022/12/22 03:37:07;;;;;;;0.00;0.00;;;;;;;7.86;68.46;99425.22;7358941;19;20014;-59
2022/12/22 03:39:33;;;;;;;0.00;0.00;;;;;;;7.89;68.66;99420.75;7364108;19;20643;-59
2022/12/22 03:47:26;;;;;;;0.00;0.00;;;;;;;7.94;68.55;99434.47;7360602;19;20036;-59
2022/12/22 03:49:51;;;;;;;0.00;0.00;;;;;;;7.90;68.63;99425.06;7363646;19;20011;-59
2022/12/22 03:52:17;;;;;;;0.00;0.00;;;;;;;7.96;68.55;99426.63;7361671;19;20006;-59
2022/12/22 03:54:42;;;;;;;0.00;0.00;;;;;;;7.97;68.81;99434.38;7363873;19;20347;-59
2022/12/22 03:57:07;;;;;;;0.00;0.00;;;;;;;7.99;68.69;99431.72;7360966;19;20014;-60
2022/12/22 03:59:33;;;;;;;0.00;0.00;;;;;;;7.99;68.83;99435.16;7359296;19;20015;-59
2022/12/22 04:01:58;;;;;;;0.00;0.00;;;;;;;7.99;68.34;99429.97;7361826;19;20028;-59
2022/12/22 04:04:25;;;;;;;0.00;0.00;;;;;;;8.02;68.70;99431.63;7349533;19;20011;-60
2022/12/22 04:06:51;;;;;;;0.00;0.00;;;;;;;8.02;68.40;99429.88;7361233;19;20029;-59
2022/12/22 04:09:16;;;;;;;0.00;0.00;;;;;;;8.03;68.27;99423.78;7363450;19;20010;-59
2022/12/22 04:14:26;;;;;;;0.00;0.00;;;;;;;8.05;68.54;99416.75;7362387;19;20110;-59
2022/12/22 04:16:51;;;;;;;0.00;0.00;;;;;;;8.07;68.43;99419.31;7364252;19;20022;-59
2022/12/22 04:19:16;;;;;;;0.00;0.00;;;;;;;8.08;68.60;99415.81;7355099;19;20011;-59
2022/12/22 04:21:42;;;;;;;0.00;0.00;;;;;;;8.10;68.53;99415.75;7355901;19;20085;-58
2022/12/22 04:24:10;;;;;;;0.10;0.10;;;;;;;8.11;68.90;99420.06;7360648;19;20038;-58
2022/12/22 04:26:36;;;;;;;;;;;;;;;8.15;67.73;99416.47;7364571;19;20006;-59
2022/12/22 04:29:01;;;;;;;0.10;0.10;;;;;;;8.11;68.44;99409.66;7360255;19;19938;-59
2022/12/22 04:31:26;;;;;;;0.03;0.03;;;;;;;8.12;68.38;99413.97;7363888;19;20094;-59
2022/12/22 04:33:52;;;;;;;0.00;0.00;;;;;;;8.12;68.46;99406.19;7364103;19;20011;-60
2022/12/22 04:36:17;;;;;;;0.05;0.05;;;;;;;8.11;68.79;99394.06;7360581;19;20023;-59
2022/12/22 04:38:43;;;;;;;0.00;0.00;;;;;;;8.10;68.82;99406.22;7361624;19;20007;-59
2022/12/22 04:41:09;;;;;;;0.00;0.00;;;;;;;8.12;68.54;99414.81;7364154;19;20719;-59
2022/12/22 04:43:35;;;;;;;0.00;0.00;;;;;;;8.09;68.96;99419.25;7360587;19;20474;-59
2022/12/22 04:46:00;;;;;;;0.00;0.00;;;;;;;8.13;68.56;99423.47;7363396;19;20030;-57
2022/12/22 04:48:28;;;;;;;0.00;0.00;;;;;;;8.03;68.53;99402.97;7362328;19;20006;-59
2022/12/22 04:50:56;;;;;;;;;;;;;;;8.19;68.02;99416.31;7363412;19;20074;-59
2022/12/22 04:53:22;;;;;;;0.00;0.00;;;;;;;8.17;68.80;99414.66;7363247;19;19923;-59
2022/12/22 04:55:50;;;;;;;0.00;0.00;;;;;;;8.17;68.64;99412.06;7364773;19;20885;-59
2022/12/22 04:58:16;;;;;;;;;;;;;;;8.19;67.85;99418.91;7362895;19;20021;-59
2022/12/22 05:00:42;;;;;;;0.10;0.10;;;;;;;8.15;68.21;99416.47;7360796;19;19911;-59
2022/12/22 05:03:08;;;;;;;0.00;0.00;;;;;;;8.14;68.38;99425.16;7361695;19;20025;-59
2022/12/22 05:05:34;;;;;;;0.00;0.00;;;;;;;8.12;68.67;99419.19;7362262;19;20725;-59
2022/12/22 05:08:00;;;;;;;0.00;0.00;;;;;;;8.11;68.96;99420.06;7363417;19;21338;-59
2022/12/22 05:10:25;;;;;;;0.00;0.00;;;;;;;8.11;68.69;99420.06;7362748;19;20031;-60
2022/12/22 05:12:54;;;;;;;0.00;0.00;;;;;;;8.06;69.08;99417.63;7364936;19;22988;-59
2022/12/22 05:15:27;;;;;;;0.00;0.00;;;;;;;8.06;68.79;99413.28;7362977;19;20031;-59
2022/12/22 05:17:53;;;;;;;0.10;0.10;;;;;;;8.00;69.19;99403.06;7363906;19;20018;-59
2022/12/22 05:20:19;;;;;;;0.05;0.05;;;;;;;8.12;69.19;99426.97;7362263;19;20017;-60
2022/12/22 05:22:45;;;;;;;0.10;0.10;;;;;;;8.14;69.29;99425.16;7362287;19;20822;-59
2022/12/22 05:25:10;;;;;;;0.00;0.00;;;;;;;8.13;69.37;99421.72;7359721;19;20015;-59
2022/12/22 05:27:36;;;;;;;0.00;0.00;;;;;;;8.13;69.34;99410.47;7357600;19;20019;-59
2022/12/22 05:30:03;;;;;;;0.00;0.00;;;;;;;8.16;69.08;99418.16;7360156;19;20010;-59
2022/12/22 05:32:31;;;;;;;0.00;0.00;;;;;;;8.18;69.48;99413.75;7363332;19;20028;-59
2022/12/22 05:34:57;;;;;;;0.00;0.00;;;;;;;8.18;69.14;99412.00;7360030;19;20984;-58
2022/12/22 05:37:22;;;;;;;0.00;0.00;;;;;;;8.20;69.15;99419.75;7361319;19;20014;-58
2022/12/22 05:39:47;;;;;;;0.10;0.10;;;;;;;8.22;69.37;99415.38;7360131;19;20018;-60
2022/12/22 05:42:13;;;;;;;0.00;0.00;;;;;;;8.22;69.24;99417.97;7362326;19;20573;-58
2022/12/22 05:44:38;;;;;;;0.00;0.00;;;;;;;8.25;69.41;99423.06;7360643;19;20018;-59
2022/12/22 05:47:04;;;;;;;0.10;0.10;;;;;;;8.26;69.51;99420.41;7361017;19;20014;-59
2022/12/22 05:49:29;;;;;;;0.10;0.10;;;;;;;8.28;69.47;99412.56;7358273;19;20109;-60
2022/12/22 05:51:55;;;;;;;0.00;0.00;;;;;;;8.29;69.22;99414.25;7361255;19;20006;-59
2022/12/22 05:54:20;;;;;;;0.10;0.10;;;;;;;8.29;69.29;99414.25;7359245;19;20027;-59
2022/12/22 05:56:46;;;;;;;0.05;0.05;;;;;;;8.31;69.30;99407.22;7361713;19;20450;-59
2022/12/22 05:59:11;;;;;;;0.10;0.10;;;;;;;8.32;69.09;99408.97;7357220;19;20050;-58
2022/12/22 06:01:37;;;;;;;0.10;0.10;;;;;;;8.33;69.30;99405.44;7361534;19;20665;-59
2022/12/22 06:04:02;;;;;;;0.00;0.00;;;;;;;8.34;69.13;99401.94;7360002;19;20016;-59
2022/12/22 06:06:28;;;;;;;0.10;0.10;;;;;;;8.28;69.52;99383.94;7359541;19;20042;-59
2022/12/22 06:08:53;;;;;;;0.00;0.00;;;;;;;8.36;69.05;99409.69;7361815;19;20031;-59
2022/12/22 06:11:19;;;;;;;0.10;0.10;;;;;;;8.37;69.20;99407.06;7356591;19;20029;-59
2022/12/22 06:13:45;;;;;;;0.00;0.00;;;;;;;8.38;69.31;99405.31;7359586;19;20047;-59
2022/12/22 06:16:11;;;;;;;0.00;0.00;;;;;;;8.34;69.39;99396.72;7361097;19;20006;-58
2022/12/22 06:18:36;;;;;;;0.00;0.00;;;;;;;8.40;69.22;99400.91;7360776;19;20083;-58
2022/12/22 06:21:02;;;;;;;0.03;0.03;;;;;;;8.40;69.15;99400.91;7360218;19;20027;-59
2022/12/22 06:23:27;;;;;;;0.00;0.00;;;;;;;8.40;69.19;99406.09;7360495;19;20014;-59
2022/12/22 06:25:58;;;;;;;0.10;0.10;;;;;;;8.41;69.47;99403.44;7357818;19;20007;-59
2022/12/22 06:28:24;;;;;;;0.00;0.00;;;;;;;8.42;69.60;99415.56;7358814;19;20014;-59
2022/12/22 06:30:49;;;;;;;0.00;0.00;;;;;;;8.40;69.50;99412.16;7361160;19;20487;-59
2022/12/22 06:33:15;;;;;;;0.10;0.10;;;;;;;8.43;69.52;99412.06;7357046;19;20042;-59
2022/12/22 06:35:40;;;;;;;0.00;0.00;;;;;;;8.42;69.57;99410.38;7358738;19;20011;-60
2022/12/22 06:38:06;;;;;;;0.10;0.10;;;;;;;8.44;69.18;99410.31;7359449;19;20029;-60
2022/12/22 06:40:31;;;;;;;0.00;0.00;;;;;;;8.34;69.08;99391.53;7366066;19;20049;-59
2022/12/22 06:43:09;;;;;;;0.00;0.00;;;;;;;8.47;69.29;99402.41;7364252;19;20465;-59
2022/12/22 06:45:38;;;;;;;;;;;;;;;8.50;68.56;99403.13;7365862;19;20430;-60
2022/12/22 06:48:04;;;;;;;0.00;0.00;;;;;;;8.47;69.12;99398.06;7366012;19;19990;-59
2022/12/22 06:50:30;;;;;;;0.00;0.00;;;;;;;8.47;69.62;99392.84;7367892;19;20011;-58
2022/12/22 06:52:55;;;;;;;0.00;0.00;;;;;;;8.45;69.16;99386.84;7364152;19;20039;-59
2022/12/22 06:55:22;;;;;;;0.00;0.00;;;;;;;8.44;69.59;99385.13;7365437;19;20018;-59
2022/12/22 06:57:47;;;;;;;0.03;0.03;;;;;;;8.46;69.64;99385.06;7356192;19;20018;-60
2022/12/22 07:00:13;;;;;;;0.00;0.00;;;;;;;8.46;69.72;99385.91;7364005;19;20987;-57
2022/12/22 07:02:38;;;;;;;0.08;0.08;;;;;;;8.44;69.34;99382.53;7365028;19;20010;-59
2022/12/22 07:05:04;;;;;;;0.05;0.05;;;;;;;8.47;69.65;99387.66;7362358;19;20014;-59
2022/12/22 07:07:29;;;;;;;0.00;0.00;;;;;;;8.46;69.73;99375.50;7367207;19;20034;-59
2022/12/22 07:09:55;;;;;;;0.00;0.00;;;;;;;8.38;69.40;99372.34;7363750;19;20010;-58
2022/12/22 07:12:22;;;;;;;0.10;0.10;;;;;;;8.41;69.41;99374.81;7366328;19;20010;-59
2022/12/22 07:14:48;;;;;;;0.00;0.00;;;;;;;8.46;69.31;99380.72;7359354;19;20010;-58
2022/12/22 07:17:13;;;;;;;0.00;0.00;;;;;;;8.46;69.91;99372.91;7365384;19;20013;-59
2022/12/22 07:19:39;;;;;;;0.08;0.08;;;;;;;8.48;69.39;99375.47;7364224;19;20012;-59
2022/12/22 07:22:04;;;;;;;0.00;0.00;;;;;;;8.44;69.83;99364.31;7364581;19;20020;-59
2022/12/22 07:24:30;;;;;;;0.00;0.00;;;;;;;8.48;69.67;99358.13;7364013;19;20014;-59
2022/12/22 07:26:55;;;;;;;0.00;0.00;;;;;;;8.50;69.56;99364.09;7363407;19;20018;-59
2022/12/22 07:29:20;;;;;;;0.10;0.10;;;;;;;8.49;69.58;99364.16;7362422;19;20014;-59
2022/12/22 07:31:46;;;;;;;0.00;0.00;;;;;;;8.49;69.41;99359.81;7362395;19;20006;-59
2022/12/22 07:34:12;;;;;;;0.10;0.10;;;;;;;8.49;69.64;99365.00;7362838;19;20009;-59
2022/12/22 07:36:37;;;;;;;0.00;0.00;;;;;;;8.50;69.54;99366.72;7361985;19;20007;-59
2022/12/22 07:39:03;;;;;;;0.00;0.00;;;;;;;8.52;70.00;99370.13;7358848;19;20002;-59
2022/12/22 07:44:12;;;;;;;0.00;0.00;;;;;;;8.53;69.68;99381.38;7362773;19;20564;-59
2022/12/22 07:46:38;;;;;;;0.10;0.10;;;;;;;8.53;69.68;99376.16;7362739;19;20010;-59
2022/12/22 07:51:50;;;;;;;0.00;0.00;;;;;;;8.53;69.81;99392.63;7360424;19;20017;-59
2022/12/22 07:54:15;;;;;;;0.10;0.10;;;;;;;8.53;69.99;99392.63;7362470;19;20047;-60
2022/12/22 07:56:42;;;;;;;0.00;0.00;;;;;;;8.55;69.52;99398.63;7362604;19;20010;-59
2022/12/22 07:59:08;;;;;;;0.00;0.00;;;;;;;8.54;69.52;99402.13;7361299;19;20019;-60
2022/12/22 08:01:33;;;;;;;0.00;0.00;;;;;;;8.56;69.37;99413.31;7364585;19;20062;-59
2022/12/22 08:03:59;;;;;;;0.00;0.00;;;;;;;8.55;69.60;99411.63;7364788;19;20466;-59
2022/12/22 08:06:25;;;;;;;0.00;0.00;;;;;;;8.51;69.77;99399.63;7362615;19;20860;-59
2022/12/22 08:08:50;;;;;;;0.00;0.00;;;;;;;8.53;69.61;99397.00;7362223;19;20006;-60
2022/12/22 08:11:16;;;;;;;0.00;0.00;;;;;;;8.41;69.84;99382.63;7357943;19;20006;-58
2022/12/22 08:13:42;;;;;;;0.00;0.00;;;;;;;8.53;69.83;99413.44;7364300;19;20097;-59
2022/12/22 08:16:12;;;;;;;0.00;0.00;;;;;;;8.54;69.59;99417.75;7362406;19;20347;-58
2022/12/22 08:18:38;;;;;;;0.03;0.03;;;;;;;8.54;69.86;99425.53;7360846;19;20045;-60
2022/12/22 08:21:05;;;;;;;0.00;0.00;;;;;;;8.54;70.00;99425.53;7364271;19;20021;-59
2022/12/22 08:23:31;;;;;;;0.10;0.10;;;;;;;8.54;70.04;99425.53;7358957;19;20358;-58
2022/12/22 08:26:10;;;;;;;0.00;0.00;;;;;;;8.57;69.52;99435.84;7361533;19;20014;-59
2022/12/22 08:28:42;;;;;;;0.00;0.00;;;;;;;8.57;69.89;99435.84;7362380;19;20018;-58
2022/12/22 08:31:07;;;;;;;0.03;0.03;;;;;;;8.56;69.81;99438.50;7358868;19;20042;-60
2022/12/22 08:33:33;;;;;;;0.10;0.10;;;;;;;8.55;70.10;99448.06;7334123;19;20121;-59
2022/12/22 08:35:58;;;;;;;0.10;0.10;;;;;;;8.55;69.98;99453.25;7361907;19;20010;-59
2022/12/22 08:38:24;;;;;;;0.00;0.00;;;;;;;8.54;69.97;99454.16;7358732;19;20026;-58
2022/12/22 08:40:50;;;;;;;0.00;0.00;;;;;;;8.57;70.11;99467.06;7357469;19;20014;-59
2022/12/22 08:43:16;;;;;;;0.00;0.00;;;;;;;8.54;69.82;99461.97;7355159;19;20025;-59
2022/12/22 08:45:41;;;;;;;0.00;0.00;;;;;;;8.56;70.00;99465.34;7337842;19;20006;-59
2022/12/22 08:48:09;;;;;;;0.00;0.00;;;;;;;8.57;69.76;99467.06;7345253;19;20377;-59
2022/12/22 08:50:34;;;;;;;0.00;0.00;;;;;;;8.54;70.04;99461.97;7354454;19;20011;-59
2022/12/22 08:53:04;;;;;;;0.00;0.00;;;;;;;8.58;70.11;99468.78;7355700;19;20463;-60
2022/12/22 08:55:30;;;;;;;0.00;0.00;;;;;;;8.56;70.17;99470.56;7359465;19;20014;-58
2022/12/22 08:57:55;;;;;;;0.10;0.10;;;;;;;8.57;70.16;99477.50;7356166;19;20762;-58
2022/12/22 09:00:21;;;;;;;0.00;0.00;;;;;;;8.56;70.03;99470.56;7357615;19;20021;-59
2022/12/22 09:02:47;;;;;;;0.03;0.03;;;;;;;8.55;70.00;99474.06;7355161;19;20011;-58
2022/12/22 09:05:12;;;;;;;0.00;0.00;;;;;;;8.56;69.95;99480.97;7357249;19;20463;-59
2022/12/22 09:07:38;;;;;;;0.10;0.10;;;;;;;8.43;69.62;99453.69;7355102;19;21006;-58
2022/12/22 09:10:03;;;;;;;0.00;0.00;;;;;;;8.56;69.83;99486.16;7358274;19;20011;-59
2022/12/22 09:12:29;;;;;;;0.00;0.00;;;;;;;8.56;69.72;99490.53;7353443;19;20117;-60
2022/12/22 09:14:54;;;;;;;0.10;0.10;;;;;;;8.57;69.76;99487.91;7351313;19;20748;-59
2022/12/22 09:17:20;;;;;;;0.10;0.10;;;;;;;8.54;70.12;99485.38;7356434;19;20021;-58
2022/12/22 09:19:45;;;;;;;0.00;0.00;;;;;;;8.58;69.88;99489.59;7352537;19;20078;-59
2022/12/22 09:22:11;;;;;;;0.00;0.00;;;;;;;8.57;70.12;99490.50;7355345;19;20018;-58
2022/12/22 09:24:36;;;;;;;0.10;0.10;;;;;;;8.59;69.97;99493.03;7353433;19;20023;-60
2022/12/22 09:27:03;;;;;;;0.00;0.00;;;;;;;8.60;69.96;99501.69;7360363;19;20078;-59
2022/12/22 09:29:28;;;;;;;0.10;0.10;;;;;;;8.61;70.16;99503.38;7360560;19;20597;-59
2022/12/22 09:31:54;;;;;;;0.00;0.00;;;;;;;8.62;69.88;99494.66;7359920;19;20117;-59
2022/12/22 09:34:19;;;;;;;0.10;0.10;;;;;;;8.64;70.38;99500.69;7362031;19;20014;-59
2022/12/22 09:36:46;;;;;;;0.05;0.05;;;;;;;8.66;70.45;99511.88;7352745;19;20040;-59
2022/12/22 09:39:11;;;;;;;0.00;0.00;;;;;;;8.67;70.36;99513.56;7357100;19;20014;-58
2022/12/22 09:41:49;;;;;;;0.00;0.00;;;;;;;8.70;70.03;99516.09;7360917;19;20010;-59
2022/12/22 09:44:32;;;;;;;0.00;0.00;;;;;;;8.78;69.63;99521.91;7355516;19;20018;-58
2022/12/22 09:47:00;;;;;;;0.00;0.00;;;;;;;8.76;70.06;99519.31;7361391;19;20023;-59
2022/12/22 09:49:26;;;;;;;;;;;;;;;8.87;69.47;99523.31;7360839;19;20030;-56
2022/12/22 09:51:55;;;;;;;0.00;0.00;;;;;;;8.77;69.73;99507.19;7353583;19;19986;-59
2022/12/22 09:54:21;;;;;;;0.00;0.00;;;;;;;8.89;69.95;99509.34;7354625;19;20011;-60
2022/12/22 09:56:47;;;;;;;0.10;0.10;;;;;;;8.91;69.77;99507.53;7335943;19;20094;-60
2022/12/22 09:59:17;;;;;;;0.10;0.10;;;;;;;8.99;69.82;99509.88;7354381;19;20020;-59
2022/12/22 10:02:24;;;;;;;0.00;0.00;;;;;;;9.07;69.52;99513.94;7352867;19;20921;-60
2022/12/22 10:04:59;;;;;;;0.00;0.00;;;;;;;9.13;69.49;99527.63;7252453;19;2004312;-60
2022/12/22 10:07:41;;;;;;;0.00;0.00;;;;;;;9.16;69.76;99527.50;7356565;19;20030;-60
2022/12/22 10:10:26;;;;;;;0.00;0.00;;;;;;;9.15;69.44;99520.59;7353786;19;20473;-60
2022/12/22 10:13:03;;;;;;;0.00;0.00;;;;;;;9.25;69.57;99529.78;7359568;19;20010;-60
2022/12/22 10:15:40;;;;;;;0.00;0.00;;;;;;;9.26;69.34;99521.06;7369420;19;20014;-60
2022/12/22 10:18:18;;;;;;;0.00;0.00;;;;;;;9.36;69.46;99538.91;7363907;19;20022;-59
2022/12/22 10:21:09;;;;;;;0.10;0.10;;;;;;;9.43;69.29;99546.50;7366544;19;20042;-58
2022/12/22 10:23:43;;;;;;;0.00;0.00;;;;;;;9.45;69.58;99542.94;7262100;19;2004357;-60
2022/12/22 10:26:17;;;;;;;0.00;0.00;;;;;;;9.52;69.50;99553.97;7358501;19;20014;-60
2022/12/22 10:28:49;;;;;;;0.00;0.00;;;;;;;9.56;69.25;99553.81;7361954;19;20006;-60
2022/12/22 10:31:20;;;;;;;0.10;0.10;;;;;;;9.60;69.63;99544.97;7365082;19;20008;-60
2022/12/22 10:33:49;;;;;;;0.00;0.00;;;;;;;9.62;69.30;99545.75;7363237;19;20083;-60
2022/12/22 10:36:21;;;;;;;0.00;0.00;;;;;;;9.59;69.39;99540.69;7357747;19;20002;-60
2022/12/22 10:39:04;;;;;;;0.05;0.05;;;;;;;9.70;69.20;99561.13;7364859;19;20039;-60
2022/12/22 10:41:34;;;;;;;0.10;0.10;;;;;;;9.72;69.66;99558.47;7367332;19;20017;-60
2022/12/22 10:44:05;;;;;;;0.10;0.10;;;;;;;9.74;69.46;99551.44;7356073;19;20029;-60
2022/12/22 10:46:52;;;;;;;0.00;0.00;;;;;;;9.76;69.46;99560.06;7363676;19;20014;-60
2022/12/22 10:49:20;;;;;;;0.08;0.08;;;;;;;9.79;69.24;99572.97;7364876;19;20014;-60
2022/12/22 10:51:55;;;;;;;0.10;0.10;;;;;;;9.81;68.81;99568.53;7365322;19;20045;-60
2022/12/22 10:54:37;;;;;;;0.00;0.00;;;;;;;9.87;69.13;99586.56;7362262;19;20010;-60
2022/12/22 10:57:04;;;;;;;0.00;0.00;;;;;;;9.85;69.38;99580.56;7364515;19;20013;-58
2022/12/22 10:59:31;;;;;;;0.00;0.00;;;;;;;9.87;69.19;99592.63;7364841;19;20034;-60
2022/12/22 11:02:21;;;;;;;0.00;0.00;;;;;;;9.92;68.93;99587.25;7364735;19;21035;-59
2022/12/22 11:04:48;;;;;;;0.00;0.00;;;;;;;9.89;69.06;99582.16;7263084;19;2004506;-60
2022/12/22 11:07:13;;;;;;;0.00;0.00;;;;;;;9.90;69.42;99583.84;7362028;19;20010;-60
2022/12/22 11:09:39;;;;;;;0.00;0.00;;;;;;;9.90;69.02;99578.63;7360323;19;20500;-59
2022/12/22 11:12:16;;;;;;;0.00;0.00;;;;;;;9.95;69.58;99587.13;7365369;19;20021;-60
2022/12/22 11:14:51;;;;;;;0.00;0.00;;;;;;;9.97;69.46;99574.88;7363376;19;20027;-58
2022/12/22 11:17:23;;;;;;;0.03;0.03;;;;;;;10.00;69.43;99569.56;7365890;19;20014;-60
2022/12/22 11:20:16;;;;;;;0.10;0.10;;;;;;;10.06;69.55;99569.31;7363023;19;20018;-60
2022/12/22 11:23:10;;;;;;;0.00;0.00;;;;;;;10.19;69.51;99561.00;7260197;19;2004557;-60
2022/12/22 11:26:00;;;;;;;0.00;0.00;;;;;;;10.29;69.41;99558.03;7247959;19;2004462;-60
2022/12/22 11:28:38;;;;;;;0.08;0.08;;;;;;;10.43;68.97;99564.44;7352663;19;20034;-60
2022/12/22 11:31:06;;;;;;;;;;;;;;;10.57;69.08;99555.13;7357825;19;20054;-60
2022/12/22 11:33:56;;;;;;;0.05;0.05;;;;;;;10.62;68.53;99555.78;7358617;19;19966;-60
2022/12/22 11:36:31;;;;;;;0.00;0.00;;;;;;;10.65;68.39;99552.22;7361487;19;20108;-60
2022/12/22 11:39:27;;;;;;;0.00;0.00;;;;;;;10.70;68.20;99554.66;7363180;19;20013;-60
2022/12/22 11:41:58;;;;;;;0.00;0.00;;;;;;;10.74;68.39;99561.41;7252958;19;2004589;-58
2022/12/22 11:44:56;;;;;;;0.00;0.00;;;;;;;10.78;68.00;99563.00;7342888;19;20045;-59
2022/12/22 11:47:46;;;;;;;0.00;0.00;;;;;;;10.79;68.60;99555.09;7245734;19;2004158;-59
2022/12/22 11:50:33;;;;;;;0.00;0.00;;;;;;;10.82;68.13;99554.13;7244204;19;2004456;-60
2022/12/22 11:53:23;;;;;;;0.10;0.10;;;;;;;10.82;68.35;99561.94;7346898;19;20019;-60
2022/12/22 11:56:14;;;;;;;0.00;0.00;;;;;;;10.86;68.35;99571.38;7345432;19;20022;-59
2022/12/22 11:58:44;;;;;;;0.00;0.00;;;;;;;10.85;68.54;99577.50;7355795;19;20507;-60
2022/12/22 12:01:40;;;;;;;0.00;0.00;;;;;;;10.91;68.22;99585.06;7364911;19;20042;-60
2022/12/22 12:04:33;;;;;;;0.00;0.00;;;;;;;10.97;68.23;99590.03;7261320;19;2004654;-60
2022/12/22 12:07:17;;;;;;;0.00;0.00;;;;;;;11.01;68.04;99596.84;7263049;19;2004497;-60
2022/12/22 12:10:10;;;;;;;0.05;0.05;;;;;;;11.01;68.05;99591.63;7357442;19;20036;-60
2022/12/22 12:13:00;;;;;;;0.00;0.00;;;;;;;11.05;68.07;99605.38;7256613;19;2004520;-60
2022/12/22 12:15:49;;;;;;;0.00;0.00;;;;;;;11.01;68.01;99596.84;7255377;19;2004341;-60
2022/12/22 12:18:26;;;;;;;0.08;0.08;;;;;;;10.99;67.87;99603.88;7360269;19;20742;-60
2022/12/22 12:21:27;;;;;;;0.05;0.05;;;;;;;10.99;68.16;99603.03;7360608;19;20687;-59
2022/12/22 12:24:20;;;;;;;0.00;0.00;;;;;;;10.96;67.91;99604.03;7255793;19;2004143;-60
2022/12/22 12:26:51;;;;;;;0.10;0.10;;;;;;;10.93;68.24;99608.50;7260063;19;2004539;-60
2022/12/22 12:29:26;;;;;;;0.00;0.00;;;;;;;10.94;68.24;99610.19;7360256;19;20880;-60
2022/12/22 12:32:16;;;;;;;0.03;0.03;;;;;;;10.91;67.70;99604.22;7359366;19;20023;-60
2022/12/22 12:34:45;;;;;;;0.00;0.00;;;;;;;10.82;68.07;99596.75;7361919;19;20458;-60
2022/12/22 12:37:36;;;;;;;0.00;0.00;;;;;;;10.76;67.81;99585.72;7350104;19;20014;-60
2022/12/22 12:40:24;;;;;;;0.00;0.00;;;;;;;10.79;68.26;99598.63;7362540;19;20016;-60
2022/12/22 12:42:50;;;;;;;0.10;0.10;;;;;;;10.72;68.21;99598.03;7364608;19;20018;-60
2022/12/22 12:45:34;;;;;;;0.00;0.00;;;;;;;10.75;68.09;99610.13;7363648;19;20022;-60
2022/12/22 12:48:22;;;;;;;0.10;0.10;;;;;;;10.73;68.30;99606.72;7363939;19;20026;-60
2022/12/22 12:50:50;;;;;;;0.00;0.00;;;;;;;10.65;68.51;99594.84;7360223;19;20010;-60
2022/12/22 12:53:17;;;;;;;0.00;0.00;;;;;;;10.64;68.22;99603.59;7363485;19;20171;-60
2022/12/22 12:55:49;;;;;;;0.05;0.05;;;;;;;10.65;68.40;99607.91;7347087;19;20074;-60
2022/12/22 12:58:36;;;;;;;0.03;0.03;;;;;;;10.63;67.72;99609.69;7361074;19;20061;-60
2022/12/22 13:01:32;;;;;;;0.00;0.00;;;;;;;10.61;67.90;99614.16;7342318;19;20042;-60
2022/12/22 13:03:58;;;;;;;0.00;0.00;;;;;;;10.55;68.44;99619.63;7257870;19;2004304;-60
2022/12/22 13:06:45;;;;;;;0.05;0.05;;;;;;;10.57;68.22;99604.72;7363189;19;20010;-60
2022/12/22 13:09:15;;;;;;;0.00;0.00;;;;;;;10.55;68.12;99616.16;7362508;19;20024;-60
2022/12/22 13:11:41;;;;;;;0.00;0.00;;;;;;;10.52;68.55;99606.66;7362639;19;20011;-60
2022/12/22 13:14:06;;;;;;;0.10;0.10;;;;;;;10.52;67.98;99604.06;7362803;19;20907;-60
2022/12/22 13:16:35;;;;;;;0.10;0.10;;;;;;;10.54;68.06;99609.22;7362147;19;20034;-60
2022/12/22 13:19:04;;;;;;;0.00;0.00;;;;;;;10.54;68.07;99617.94;7361275;19;20029;-60
2022/12/22 13:21:39;;;;;;;0.10;0.10;;;;;;;10.55;68.11;99603.97;7363539;19;20033;-59
2022/12/22 13:24:14;;;;;;;0.03;0.03;;;;;;;10.54;68.32;99591.81;7356882;19;20006;-60
2022/12/22 13:26:42;;;;;;;0.00;0.00;;;;;;;10.52;68.50;99598.84;7354829;19;20010;-60
2022/12/22 13:29:21;;;;;;;0.00;0.00;;;;;;;10.55;67.99;99588.28;7355099;19;20010;-59
2022/12/22 13:32:03;;;;;;;0.00;0.00;;;;;;;10.56;67.88;99589.97;7358067;19;20015;-60
2022/12/22 13:34:44;;;;;;;0.00;0.00;;;;;;;10.58;67.98;99598.59;7355223;19;20014;-59
2022/12/22 13:37:21;;;;;;;0.00;0.00;;;;;;;10.58;68.12;99601.19;7356758;19;20028;-60
2022/12/22 13:40:24;;;;;;;0.00;0.00;;;;;;;10.60;67.90;99586.34;7358364;19;20011;-60
2022/12/22 13:43:03;;;;;;;0.00;0.00;;;;;;;10.59;68.07;99589.88;7250751;19;2004449;-60
2022/12/22 13:45:33;;;;;;;0.00;0.00;;;;;;;10.58;67.61;99585.53;7350517;19;20348;-59
2022/12/22 13:48:03;;;;;;;0.00;0.00;;;;;;;10.49;67.69;99574.63;7347226;19;20040;-60
2022/12/22 13:50:37;;;;;;;0.10;0.10;;;;;;;10.57;67.84;99586.44;7359247;19;20006;-60
2022/12/22 13:53:06;;;;;;;0.00;0.00;;;;;;;10.55;67.72;99588.28;7356692;19;20474;-60
2022/12/22 13:55:33;;;;;;;0.00;0.00;;;;;;;10.54;67.82;99596.16;7357982;19;20015;-60
2022/12/22 13:58:05;;;;;;;0.00;0.00;;;;;;;10.53;66.98;99604.91;7353650;19;20647;-60
2022/12/22 14:00:31;;;;;;;0.10;0.10;;;;;;;10.50;67.44;99611.13;7357578;19;20014;-60
2022/12/22 14:02:56;;;;;;;0.00;0.00;;;;;;;10.47;67.66;99616.44;7350213;19;20014;-60
2022/12/22 14:05:21;;;;;;;0.00;0.00;;;;;;;10.45;67.41;99614.81;7354030;19;20041;-60
2022/12/22 14:08:02;;;;;;;0.00;0.00;;;;;;;10.45;67.39;99623.50;7358508;19;20732;-59
2022/12/22 14:10:32;;;;;;;0.00;0.00;;;;;;;10.42;67.42;99627.97;7358149;19;20006;-60
2022/12/22 14:13:00;;;;;;;0.00;0.00;;;;;;;10.36;67.26;99634.28;7356792;19;20018;-60
2022/12/22 14:15:25;;;;;;;0.00;0.00;;;;;;;10.33;67.11;99624.81;7356484;19;20030;-60
2022/12/22 14:17:51;;;;;;;0.00;0.00;;;;;;;10.30;67.59;99611.06;7357141;19;20013;-60
2022/12/22 14:20:35;;;;;;;0.00;0.00;;;;;;;10.31;67.50;99617.97;7357297;19;20519;-60
2022/12/22 14:23:04;;;;;;;0.00;0.00;;;;;;;10.25;67.71;99606.00;7359071;19;20792;-60
2022/12/22 14:25:36;;;;;;;0.00;0.00;;;;;;;10.26;67.86;99601.63;7356598;19;20504;-60
2022/12/22 14:28:04;;;;;;;0.00;0.00;;;;;;;10.19;68.32;99580.13;7354934;19;20724;-60
2022/12/22 14:30:37;;;;;;;0.00;0.00;;;;;;;10.21;68.29;99593.09;7354655;19;20589;-60
2022/12/22 14:33:27;;;;;;;0.00;0.00;;;;;;;10.23;67.77;99606.94;7358356;19;20013;-60
2022/12/22 14:36:17;;;;;;;0.00;0.00;;;;;;;10.22;67.68;99611.31;7358644;19;20019;-59
2022/12/22 14:38:49;;;;;;;0.10;0.10;;;;;;;10.21;67.92;99613.97;7357852;19;20017;-60
2022/12/22 14:41:40;;;;;;;0.10;0.10;;;;;;;10.23;67.94;99612.16;7356065;19;20877;-59
2022/12/22 14:44:15;;;;;;;0.10;0.10;;;;;;;10.25;67.76;99626.03;7254493;19;2004354;-59
2022/12/22 14:46:43;;;;;;;0.00;0.00;;;;;;;10.25;67.79;99628.66;7358254;19;20024;-60
2022/12/22 14:49:17;;;;;;;0.00;0.00;;;;;;;10.29;67.83;99628.47;7357813;19;20018;-60
2022/12/22 14:51:56;;;;;;;0.00;0.00;;;;;;;10.27;68.17;99611.16;7356184;19;20029;-60
2022/12/22 14:54:26;;;;;;;0.00;0.00;;;;;;;10.28;67.96;99615.47;7355928;19;20020;-60
2022/12/22 14:56:55;;;;;;;0.10;0.10;;;;;;;10.28;67.96;99631.13;7353974;19;20016;-60
2022/12/22 14:59:24;;;;;;;0.10;0.10;;;;;;;10.26;67.81;99635.56;7359940;19;20035;-59
2022/12/22 15:02:23;;;;;;;0.00;0.00;;;;;;;10.28;67.68;99644.16;7362664;19;20109;-60
2022/12/22 15:05:22;;;;;;;0.00;0.00;;;;;;;10.22;67.56;99662.63;7261359;19;2004528;-60
2022/12/22 15:07:49;;;;;;;0.10;0.10;;;;;;;10.18;67.47;99666.25;7261392;19;2004419;-60
2022/12/22 15:10:15;;;;;;;0.00;0.00;;;;;;;10.13;68.07;99662.06;7362959;19;20014;-60
2022/12/22 15:12:41;;;;;;;0.00;0.00;;;;;;;10.08;67.92;99671.81;7362169;19;20044;-60
2022/12/22 15:15:21;;;;;;;0.00;0.00;;;;;;;10.09;67.64;99681.38;7364497;19;20022;-60
2022/12/22 15:17:49;;;;;;;0.00;0.00;;;;;;;9.98;67.71;99669.59;7359913;19;20029;-60
2022/12/22 15:20:19;;;;;;;0.10;0.10;;;;;;;10.04;67.95;99688.50;7360127;19;20007;-60
2022/12/22 15:22:45;;;;;;;0.03;0.03;;;;;;;10.03;67.76;99678.97;7362970;19;20082;-60
2022/12/22 15:25:16;;;;;;;0.00;0.00;;;;;;;10.02;67.90;99682.47;7361401;19;20427;-60
2022/12/22 15:27:42;;;;;;;0.00;0.00;;;;;;;9.87;67.66;99662.19;7364552;19;20101;-58
2022/12/22 15:30:09;;;;;;;0.08;0.08;;;;;;;9.97;68.06;99673.97;7361773;19;21668;-60
2022/12/22 15:32:34;;;;;;;0.10;0.10;;;;;;;9.96;67.97;99674.03;7363180;19;20788;-59
2022/12/22 15:35:02;;;;;;;0.00;0.00;;;;;;;9.93;68.44;99671.53;7362810;19;21410;-60
2022/12/22 15:37:28;;;;;;;0.03;0.03;;;;;;;9.91;68.09;99671.59;7364986;19;20018;-60